Terminal Aerodrome Forecast
Issued by NWS

Home | Current Version | Previous Version | Text Only | Print | Product List | Glossary On
Versions: 1 2 3 4 5 6 7 8 9 10 11 12 13 14 15 16 17 18 19 20 21 22 23 24 25 26
000
FTUS45 KGGW 270534
TAFGDV
TAF
KGDV 270534Z 2706/2806 35007KT P6SM OVC070
     FM271000 05008KT 3SM -SN OVC011
     FM271700 04013KT 1SM -SN OVC006
     FM280000 04012KT P6SM BKN015=

USA.gov is the U.S. government's official web portal to all federal, state and local government web resources and services.